Time;durP1;ratioP1;P1;durP2;ratioP2;P2;SDS_P1;SDS_P2;PMS_P1;PMS_P2;Temp;Humidity;BMP_temperature;BMP_pressure;BME280_temperature;BME280_humidity;BME280_pressure;Samples;Min_cycle;Max_cycle;Signal;HPM_P1;HPM_P2
2021/06/27 00:00:20;;;;;;;6.78;2.20;;;;;;;;;;5110413;28;20032;-72
2021/06/27 00:04:33;;;;;;;6.80;2.10;;;;;;;;;;5110288;27;20924;-72
2021/06/27 00:07:26;;;;;;;8.43;2.63;;;;;;;;;;5110457;27;20834;-72
2021/06/27 00:09:52;;;;;;;4.45;1.60;;;;;;;;;;5109021;28;20388;-72
2021/06/27 00:12:18;;;;;;;13.25;2.90;;;;;;;;;;5110267;28;20031;-72
2021/06/27 00:14:44;;;;;;;9.63;2.53;;;;;;;;;;5110339;28;20094;-72
2021/06/27 00:17:10;;;;;;;8.02;2.50;;;;;;;;;;5109932;28;20529;-72
2021/06/27 00:19:36;;;;;;;6.63;2.38;;;;;;;;;;5110364;28;20472;-72
2021/06/27 00:22:03;;;;;;;9.70;2.88;;;;;;;;;;5109235;28;20047;-72
2021/06/27 00:25:05;;;;;;;9.88;2.58;;;;;;;;;;5110458;27;20404;-72
2021/06/27 00:27:31;;;;;;;12.23;2.33;;;;;;;;;;5110386;28;20032;-72
2021/06/27 00:29:57;;;;;;;11.20;2.38;;;;;;;;;;5125761;28;20078;-72
2021/06/27 00:32:23;;;;;;;9.40;2.58;;;;;;;;;;5126173;28;20020;-72
2021/06/27 00:34:50;;;;;;;9.38;2.67;;;;;;;;;;5126085;28;20066;-72
2021/06/27 00:37:16;;;;;;;7.75;2.45;;;;;;;;;;5109834;28;20450;-72
2021/06/27 00:39:42;;;;;;;11.90;2.15;;;;;;;;;;5110403;28;20048;-72
2021/06/27 00:42:08;;;;;;;10.23;2.42;;;;;;;;;;5110423;28;20537;-72
2021/06/27 00:46:13;;;;;;;7.63;2.00;;;;;;;;;;5110459;27;20826;-72
2021/06/27 00:48:39;;;;;;;6.88;1.85;;;;;;;;;;5110332;28;20035;-73
2021/06/27 00:51:06;;;;;;;10.43;2.05;;;;;;;;;;5109875;28;20024;-72
2021/06/27 00:53:32;;;;;;;9.15;2.53;;;;;;;;;;5110280;28;20012;-72
2021/06/27 00:55:58;;;;;;;9.15;2.30;;;;;;;;;;5110221;28;20095;-73
2021/06/27 00:58:58;;;;;;;12.63;2.45;;;;;;;;;;5069591;28;20513;-72
2021/06/27 01:01:24;;;;;;;5.55;2.10;;;;;;;;;;5070135;28;20071;-72
2021/06/27 01:05:33;;;;;;;8.27;2.20;;;;;;;;;;5069688;28;20923;-72
2021/06/27 01:07:59;;;;;;;11.40;2.63;;;;;;;;;;5069804;28;20025;-72
2021/06/27 01:11:22;;;;;;;9.32;1.98;;;;;;;;;;5110057;27;20392;-72
2021/06/27 01:14:54;;;;;;;10.23;2.58;;;;;;;;;;5110358;27;20393;-72
2021/06/27 01:17:21;;;;;;;9.45;2.55;;;;;;;;;;5110429;28;20383;-72
2021/06/27 01:19:47;;;;;;;7.57;2.45;;;;;;;;;;5110094;28;20509;-72
2021/06/27 01:22:13;;;;;;;7.53;2.53;;;;;;;;;;5110551;28;20028;-72
2021/06/27 01:25:45;;;;;;;8.52;2.67;;;;;;;;;;5109937;27;20824;-72
2021/06/27 01:28:41;;;;;;;13.75;3.28;;;;;;;;;;5110477;27;20416;-72
2021/06/27 01:31:07;;;;;;;13.70;3.13;;;;;;;;;;5110818;28;20028;-72
2021/06/27 01:33:34;;;;;;;14.77;2.83;;;;;;;;;;5109905;28;20020;-72
2021/06/27 01:36:16;;;;;;;7.70;2.13;;;;;;;;;;5130734;27;20602;-72
2021/06/27 01:38:42;;;;;;;8.02;2.35;;;;;;;;;;5110376;28;20031;-72
2021/06/27 01:41:25;;;;;;;11.65;2.75;;;;;;;;;;5069561;27;20838;-72
2021/06/27 01:44:32;;;;;;;8.70;2.78;;;;;;;;;;5110600;27;20420;-72
2021/06/27 01:46:58;;;;;;;8.15;2.55;;;;;;;;;;5110123;28;20028;-72
2021/06/27 01:49:25;;;;;;;7.97;2.65;;;;;;;;;;5110406;28;20047;-72
2021/06/27 01:51:51;;;;;;;8.13;2.15;;;;;;;;;;5110370;28;20123;-72
2021/06/27 01:54:18;;;;;;;8.18;2.33;;;;;;;;;;5109912;28;20486;-72
2021/06/27 01:56:44;;;;;;;7.57;1.92;;;;;;;;;;5110134;28;20467;-73
2021/06/27 02:00:56;;;;;;;6.38;2.20;;;;;;;;;;5110150;27;20934;-73
2021/06/27 02:04:41;;;;;;;9.07;2.17;;;;;;;;;;5110506;27;20396;-73
2021/06/27 02:07:08;;;;;;;10.02;2.25;;;;;;;;;;5110446;28;20094;-73
2021/06/27 02:09:34;;;;;;;11.40;2.00;;;;;;;;;;5108593;28;20028;-74
2021/06/27 02:12:00;;;;;;;6.07;2.25;;;;;;;;;;5110313;28;20099;-73
2021/06/27 02:14:26;;;;;;;5.88;2.00;;;;;;;;;;5110218;28;20031;-73
2021/06/27 02:18:08;;;;;;;12.18;2.88;;;;;;;;;;5110452;27;20392;-72
2021/06/27 02:20:34;;;;;;;12.30;3.42;;;;;;;;;;5110516;28;20024;-72
2021/06/27 02:24:26;;;;;;;9.93;3.35;;;;;;;;;;5110828;27;20385;-73
2021/06/27 02:28:09;;;;;;;6.65;2.47;;;;;;;;;;5110594;27;20408;-72
2021/06/27 02:30:35;;;;;;;8.50;3.38;;;;;;;;;;5110116;28;20498;-72
2021/06/27 02:33:02;;;;;;;13.02;2.78;;;;;;;;;;5126250;28;20085;-72
2021/06/27 02:35:28;;;;;;;8.60;2.97;;;;;;;;;;5126232;28;20058;-72
2021/06/27 02:37:54;;;;;;;7.57;2.05;;;;;;;;;;5109857;28;20031;-73
2021/06/27 02:40:20;;;;;;;8.07;2.90;;;;;;;;;;5110268;28;20022;-73
2021/06/27 02:42:47;;;;;;;7.90;2.47;;;;;;;;;;5110089;28;20089;-73
2021/06/27 02:45:21;;;;;;;9.27;2.70;;;;;;;;;;5069966;28;20401;-72
2021/06/27 02:48:28;;;;;;;6.45;2.60;;;;;;;;;;5110518;27;20408;-72
2021/06/27 02:50:54;;;;;;;8.35;2.80;;;;;;;;;;5110112;28;20499;-72
2021/06/27 02:53:20;;;;;;;9.48;2.80;;;;;;;;;;5126207;28;20024;-72
2021/06/27 02:55:46;;;;;;;5.60;1.98;;;;;;;;;;5126213;28;20034;-73
2021/06/27 02:58:13;;;;;;;8.15;2.60;;;;;;;;;;5125828;28;20023;-72
2021/06/27 03:00:39;;;;;;;6.85;2.08;;;;;;;;;;5110254;28;20484;-73
2021/06/27 03:06:57;;;;;;;10.68;2.90;;;;;;;;;;5049848;28;20384;-72
2021/06/27 03:09:23;;;;;;;8.63;3.22;;;;;;;;;;5049986;28;20017;-73
2021/06/27 03:11:50;;;;;;;10.75;2.95;;;;;;;;;;5048144;28;20561;-73
2021/06/27 03:14:16;;;;;;;9.00;2.72;;;;;;;;;;5049790;28;20063;-73
2021/06/27 03:16:42;;;;;;;7.03;2.65;;;;;;;;;;5048578;28;20076;-72
2021/06/27 03:19:43;;;;;;;6.85;2.80;;;;;;;;;;5110326;27;20393;-72
2021/06/27 03:22:09;;;;;;;8.15;2.42;;;;;;;;;;5110680;28;20476;-72
2021/06/27 03:24:35;;;;;;;9.52;3.10;;;;;;;;;;5109135;28;20114;-72
2021/06/27 03:28:31;;;;;;;12.18;3.80;;;;;;;;;;5110443;27;20746;-73
2021/06/27 03:30:57;;;;;;;10.00;3.60;;;;;;;;;;5110533;28;20035;-73
2021/06/27 03:33:23;;;;;;;7.20;3.05;;;;;;;;;;5110071;28;20077;-73
2021/06/27 03:35:49;;;;;;;11.23;2.90;;;;;;;;;;5110444;28;20030;-73
2021/06/27 03:38:22;;;;;;;7.00;2.35;;;;;;;;;;5109091;28;20024;-73
2021/06/27 03:40:48;;;;;;;8.73;2.30;;;;;;;;;;5110186;28;20103;-73
2021/06/27 03:43:45;;;;;;;7.78;2.65;;;;;;;;;;5110587;27;20381;-73
2021/06/27 03:46:13;;;;;;;7.20;2.63;;;;;;;;;;5110031;28;20020;-72
2021/06/27 03:50:27;;;;;;;12.07;2.80;;;;;;;;;;5110483;27;20401;-72
2021/06/27 03:52:53;;;;;;;5.47;2.22;;;;;;;;;;5109211;28;20016;-74
2021/06/27 03:55:59;;;;;;;7.00;2.33;;;;;;;;;;5110421;27;20508;-73
2021/06/27 03:58:26;;;;;;;6.28;2.67;;;;;;;;;;5110640;28;20048;-74
2021/06/27 04:00:52;;;;;;;7.22;2.05;;;;;;;;;;5110249;28;20472;-73
2021/06/27 04:03:19;;;;;;;6.65;2.20;;;;;;;;;;5110407;28;20103;-73
2021/06/27 04:05:45;;;;;;;13.10;2.35;;;;;;;;;;5110254;28;20035;-73
2021/06/27 04:08:11;;;;;;;7.82;2.75;;;;;;;;;;5108622;28;20071;-73
2021/06/27 04:11:25;;;;;;;7.88;2.50;;;;;;;;;;5110513;27;20396;-72
2021/06/27 04:13:51;;;;;;;5.95;2.53;;;;;;;;;;5110557;28;20035;-72
2021/06/27 04:16:18;;;;;;;10.30;2.55;;;;;;;;;;5110001;28;20073;-72
2021/06/27 04:18:44;;;;;;;9.00;2.53;;;;;;;;;;5109285;28;20453;-72
2021/06/27 04:21:10;;;;;;;6.57;2.40;;;;;;;;;;5110504;28;20024;-72
2021/06/27 04:23:39;;;;;;;6.32;2.67;;;;;;;;;;5110195;28;20129;-72
2021/06/27 04:26:05;;;;;;;9.30;2.38;;;;;;;;;;5108956;28;20035;-72
2021/06/27 04:28:31;;;;;;;6.25;2.35;;;;;;;;;;5109767;28;20067;-72
2021/06/27 04:30:57;;;;;;;4.85;2.00;;;;;;;;;;5110085;28;20103;-72
2021/06/27 04:34:02;;;;;;;7.07;2.78;;;;;;;;;;5069864;28;20408;-72
2021/06/27 04:36:28;;;;;;;7.60;2.63;;;;;;;;;;5069569;28;20036;-72
2021/06/27 04:38:55;;;;;;;5.22;2.03;;;;;;;;;;5069985;28;20044;-72
2021/06/27 04:41:21;;;;;;;3.80;1.73;;;;;;;;;;5069992;28;20493;-73
2021/06/27 04:43:47;;;;;;;5.93;2.67;;;;;;;;;;5069526;28;20055;-73
2021/06/27 04:46:13;;;;;;;5.95;2.00;;;;;;;;;;5069742;28;20023;-73
2021/06/27 04:48:39;;;;;;;8.73;2.42;;;;;;;;;;5069656;28;20495;-72
2021/06/27 04:51:06;;;;;;;7.20;2.40;;;;;;;;;;5069227;28;20025;-72
2021/06/27 04:55:31;;;;;;;6.53;2.40;;;;;;;;;;5069879;28;20484;-72
2021/06/27 04:57:58;;;;;;;10.30;2.90;;;;;;;;;;5069668;28;20481;-72
2021/06/27 05:00:24;;;;;;;5.32;1.80;;;;;;;;;;5069978;28;20029;-72
2021/06/27 05:02:50;;;;;;;8.60;2.42;;;;;;;;;;5069887;28;20017;-72
2021/06/27 05:05:16;;;;;;;9.90;2.85;;;;;;;;;;5068042;28;20066;-72
2021/06/27 05:09:24;;;;;;;4.38;1.90;;;;;;;;;;5110469;27;20462;-72
2021/06/27 05:11:50;;;;;;;6.68;2.22;;;;;;;;;;5110143;28;20047;-72
2021/06/27 05:14:17;;;;;;;8.82;2.55;;;;;;;;;;5110415;28;20103;-72
2021/06/27 05:16:43;;;;;;;9.52;3.28;;;;;;;;;;5110600;28;20024;-71
2021/06/27 05:19:09;;;;;;;8.77;2.20;;;;;;;;;;5109977;28;20020;-71
2021/06/27 05:21:35;;;;;;;11.55;2.80;;;;;;;;;;5110515;28;20031;-72
2021/06/27 05:24:01;;;;;;;6.40;2.80;;;;;;;;;;5110283;28;20016;-72
2021/06/27 05:26:27;;;;;;;13.35;3.20;;;;;;;;;;5109798;28;20028;-72
2021/06/27 05:28:54;;;;;;;9.25;2.85;;;;;;;;;;5125850;28;20032;-72
2021/06/27 05:31:20;;;;;;;9.85;2.00;;;;;;;;;;5125949;28;20027;-72
2021/06/27 05:33:46;;;;;;;10.88;2.55;;;;;;;;;;5125435;28;20118;-72
2021/06/27 05:37:15;;;;;;;6.35;2.22;;;;;;;;;;5110532;27;20458;-72
2021/06/27 05:39:42;;;;;;;10.98;3.42;;;;;;;;;;5110236;28;20034;-74
2021/06/27 05:42:08;;;;;;;6.63;2.60;;;;;;;;;;5109354;28;20034;-73
2021/06/27 05:44:34;;;;;;;6.38;2.33;;;;;;;;;;5110481;28;20016;-73
2021/06/27 05:48:31;;;;;;;7.43;2.63;;;;;;;;;;5110492;27;20412;-72
2021/06/27 05:50:57;;;;;;;8.00;2.63;;;;;;;;;;5126280;28;20039;-72
2021/06/27 05:53:23;;;;;;;9.77;3.28;;;;;;;;;;5125569;28;20054;-72
2021/06/27 05:56:08;;;;;;;5.57;2.47;;;;;;;;;;5126192;28;20480;-72
2021/06/27 05:58:34;;;;;;;13.73;2.85;;;;;;;;;;5110280;28;20426;-72
2021/06/27 06:01:00;;;;;;;7.75;2.90;;;;;;;;;;5125806;28;20024;-72
2021/06/27 06:03:26;;;;;;;7.53;3.20;;;;;;;;;;5110336;28;20729;-72
2021/06/27 06:07:13;;;;;;;8.48;3.53;;;;;;;;;;5109994;27;20404;-72
2021/06/27 06:09:39;;;;;;;9.15;3.80;;;;;;;;;;5126179;28;20030;-72
2021/06/27 06:12:06;;;;;;;10.23;4.15;;;;;;;;;;5110328;28;20077;-72
2021/06/27 06:14:32;;;;;;;7.85;3.67;;;;;;;;;;5109783;28;20038;-72
2021/06/27 06:16:58;;;;;;;13.50;3.78;;;;;;;;;;5110337;28;20031;-72
2021/06/27 06:19:24;;;;;;;8.95;3.30;;;;;;;;;;5110496;28;20476;-72
2021/06/27 06:21:51;;;;;;;8.77;3.65;;;;;;;;;;5109941;28;20020;-72
2021/06/27 06:24:18;;;;;;;12.00;4.18;;;;;;;;;;5109935;28;20028;-72
2021/06/27 06:27:57;;;;;;;8.55;4.03;;;;;;;;;;5110105;27;20385;-72
2021/06/27 06:30:23;;;;;;;6.22;3.50;;;;;;;;;;5110500;28;20024;-72
2021/06/27 06:32:49;;;;;;;9.35;4.18;;;;;;;;;;5110338;28;20031;-72
2021/06/27 06:35:16;;;;;;;9.32;3.28;;;;;;;;;;5110023;28;20413;-72
2021/06/27 06:37:42;;;;;;;7.88;3.28;;;;;;;;;;5110345;28;20024;-72
2021/06/27 06:40:08;;;;;;;9.00;3.17;;;;;;;;;;5110479;28;20024;-72
2021/06/27 06:42:35;;;;;;;8.20;3.10;;;;;;;;;;5109870;28;20483;-72
2021/06/27 06:45:01;;;;;;;7.90;3.08;;;;;;;;;;5110155;28;20611;-72
2021/06/27 06:47:27;;;;;;;11.30;4.30;;;;;;;;;;5110224;28;20032;-72
2021/06/27 06:49:53;;;;;;;7.95;3.25;;;;;;;;;;5109682;28;20091;-72
2021/06/27 06:52:19;;;;;;;9.85;3.03;;;;;;;;;;5110009;28;20032;-72
2021/06/27 06:54:46;;;;;;;7.50;3.22;;;;;;;;;;5110068;28;20103;-72
2021/06/27 06:57:12;;;;;;;7.88;3.05;;;;;;;;;;5109673;28;20032;-72
2021/06/27 06:59:38;;;;;;;8.50;3.22;;;;;;;;;;5110155;28;20069;-72
2021/06/27 07:02:04;;;;;;;6.88;3.40;;;;;;;;;;5109992;28;20488;-72
2021/06/27 07:04:31;;;;;;;7.20;3.28;;;;;;;;;;5109378;28;20028;-72
2021/06/27 07:06:58;;;;;;;9.77;3.33;;;;;;;;;;5109679;28;20115;-72
2021/06/27 07:09:24;;;;;;;8.32;3.55;;;;;;;;;;5109776;28;20027;-72
2021/06/27 07:11:50;;;;;;;8.57;2.95;;;;;;;;;;5108045;28;20024;-72
2021/06/27 07:14:16;;;;;;;6.72;3.38;;;;;;;;;;5108365;28;20372;-72
2021/06/27 07:16:42;;;;;;;7.72;3.22;;;;;;;;;;5109637;28;20027;-73
2021/06/27 07:19:09;;;;;;;9.65;4.32;;;;;;;;;;5108124;28;20051;-73
2021/06/27 07:21:35;;;;;;;7.35;3.42;;;;;;;;;;5109571;28;20019;-73
2021/06/27 07:24:01;;;;;;;8.27;3.10;;;;;;;;;;5108061;28;20475;-72
2021/06/27 07:26:27;;;;;;;8.93;3.35;;;;;;;;;;5109175;28;20134;-73
2021/06/27 07:28:53;;;;;;;8.55;2.83;;;;;;;;;;5109727;28;20023;-73
2021/06/27 07:31:20;;;;;;;6.88;3.13;;;;;;;;;;5108964;28;20483;-72
2021/06/27 07:33:46;;;;;;;9.23;3.47;;;;;;;;;;5108046;28;20035;-72
2021/06/27 07:36:12;;;;;;;7.43;3.55;;;;;;;;;;5109255;28;20551;-72
2021/06/27 07:38:39;;;;;;;6.47;3.22;;;;;;;;;;5099021;28;20027;-72
2021/06/27 07:41:05;;;;;;;9.15;4.05;;;;;;;;;;5094490;28;20024;-72
2021/06/27 07:43:33;;;;;;;10.48;3.33;;;;;;;;;;5095498;28;20414;-72
2021/06/27 07:46:00;;;;;;;9.15;3.00;;;;;;;;;;5094836;28;20024;-72
2021/06/27 07:48:26;;;;;;;8.63;2.53;;;;;;;;;;5095378;28;20387;-72
2021/06/27 07:50:52;;;;;;;5.45;2.67;;;;;;;;;;5095208;28;20026;-72
2021/06/27 07:53:18;;;;;;;5.47;2.90;;;;;;;;;;5094791;28;20020;-72
2021/06/27 07:55:44;;;;;;;7.43;2.72;;;;;;;;;;5093984;28;20534;-73
2021/06/27 07:58:11;;;;;;;6.82;2.65;;;;;;;;;;5095186;28;20069;-72
2021/06/27 08:00:37;;;;;;;7.95;3.13;;;;;;;;;;5094820;28;20032;-72
2021/06/27 08:03:03;;;;;;;5.28;2.30;;;;;;;;;;5095026;28;20020;-73
2021/06/27 08:05:29;;;;;;;7.15;2.55;;;;;;;;;;5095036;28;20020;-73
2021/06/27 08:07:55;;;;;;;6.68;3.20;;;;;;;;;;5094630;28;20026;-73
2021/06/27 08:10:22;;;;;;;6.03;2.50;;;;;;;;;;5094914;28;20353;-73
2021/06/27 08:12:48;;;;;;;5.78;2.28;;;;;;;;;;5094806;28;20024;-73
2021/06/27 08:15:18;;;;;;;7.60;3.38;;;;;;;;;;5094446;28;20021;-73
2021/06/27 08:17:45;;;;;;;6.30;2.28;;;;;;;;;;5095473;28;20149;-73
2021/06/27 08:20:12;;;;;;;8.13;2.75;;;;;;;;;;5095174;28;20027;-73
2021/06/27 08:22:38;;;;;;;5.03;2.40;;;;;;;;;;5094325;28;20376;-74
2021/06/27 08:25:04;;;;;;;7.30;2.75;;;;;;;;;;5094680;28;20044;-74
2021/06/27 08:27:31;;;;;;;12.13;2.83;;;;;;;;;;5092786;28;20047;-74
2021/06/27 08:29:58;;;;;;;5.03;2.30;;;;;;;;;;5093185;28;20385;-74
2021/06/27 08:32:24;;;;;;;8.27;2.60;;;;;;;;;;5094583;28;20031;-74
2021/06/27 08:34:50;;;;;;;6.30;2.78;;;;;;;;;;5094220;28;20031;-73
2021/06/27 08:37:16;;;;;;;6.80;2.63;;;;;;;;;;5093291;28;20115;-73
2021/06/27 08:39:42;;;;;;;8.27;2.67;;;;;;;;;;5094534;28;20024;-73
2021/06/27 08:42:09;;;;;;;4.75;1.90;;;;;;;;;;5093965;28;20110;-73
2021/06/27 08:44:35;;;;;;;6.20;2.13;;;;;;;;;;5094247;28;20028;-74
2021/06/27 08:47:03;;;;;;;5.25;2.25;;;;;;;;;;5094219;28;20450;-74
2021/06/27 08:49:29;;;;;;;9.10;2.90;;;;;;;;;;5091547;28;20107;-73
2021/06/27 08:51:56;;;;;;;6.00;2.63;;;;;;;;;;5094265;28;20028;-72
2021/06/27 08:54:22;;;;;;;9.35;3.33;;;;;;;;;;5094066;28;20066;-72
2021/06/27 08:56:49;;;;;;;12.82;2.80;;;;;;;;;;5094005;28;20032;-73
2021/06/27 08:59:15;;;;;;;5.93;2.65;;;;;;;;;;5092816;28;20028;-73
2021/06/27 09:01:41;;;;;;;7.60;2.92;;;;;;;;;;5092822;28;20024;-73
2021/06/27 09:04:07;;;;;;;6.70;2.75;;;;;;;;;;5093466;28;20062;-73
2021/06/27 09:06:37;;;;;;;9.68;2.92;;;;;;;;;;5093843;28;20035;-73
2021/06/27 09:09:13;;;;;;;4.50;2.13;;;;;;;;;;5093867;28;20017;-73
2021/06/27 09:11:40;;;;;;;5.63;2.60;;;;;;;;;;5093461;28;20031;-74
2021/06/27 09:14:26;;;;;;;5.85;2.78;;;;;;;;;;5093908;28;20036;-73
2021/06/27 09:17:13;;;;;;;8.98;2.88;;;;;;;;;;5092093;28;20150;-73
2021/06/27 09:19:51;;;;;;;8.15;2.80;;;;;;;;;;5093717;28;20028;-73
2021/06/27 09:22:18;;;;;;;9.77;2.30;;;;;;;;;;5093580;28;20090;-73
2021/06/27 09:24:46;;;;;;;11.43;2.47;;;;;;;;;;5093260;28;20024;-73
2021/06/27 09:27:18;;;;;;;10.65;2.90;;;;;;;;;;5093288;28;20048;-73
2021/06/27 09:29:44;;;;;;;3.22;2.05;;;;;;;;;;5093615;28;20495;-74
2021/06/27 09:32:17;;;;;;;7.85;2.58;;;;;;;;;;5093055;28;20023;-73
2021/06/27 09:34:44;;;;;;;6.18;2.85;;;;;;;;;;5092236;28;20024;-73
2021/06/27 09:37:13;;;;;;;10.55;2.92;;;;;;;;;;5093460;28;20376;-73
2021/06/27 09:40:00;;;;;;;5.95;2.70;;;;;;;;;;5091566;28;20384;-76
2021/06/27 09:42:27;;;;;;;5.95;2.35;;;;;;;;;;5093269;28;20016;-73
2021/06/27 09:45:19;;;;;;;9.20;3.13;;;;;;;;;;5092811;28;20028;-73
2021/06/27 09:48:04;;;;;;;5.22;2.35;;;;;;;;;;5091052;28;20046;-73
2021/06/27 09:50:31;;;;;;;9.57;2.83;;;;;;;;;;5093171;28;20420;-73
2021/06/27 09:52:57;;;;;;;11.95;2.97;;;;;;;;;;5091326;28;20483;-73
2021/06/27 09:55:23;;;;;;;4.50;2.60;;;;;;;;;;5093274;28;20377;-72
2021/06/27 09:57:49;;;;;;;6.28;2.42;;;;;;;;;;5093359;28;20031;-72
2021/06/27 10:00:30;;;;;;;12.00;2.92;;;;;;;;;;5092365;28;20020;-72
2021/06/27 10:03:03;;;;;;;8.57;3.30;;;;;;;;;;5092733;28;20020;-72
2021/06/27 10:05:29;;;;;;;10.25;3.22;;;;;;;;;;5092697;28;20020;-74
2021/06/27 10:07:59;;;;;;;5.85;2.05;;;;;;;;;;5092307;28;20483;-72
2021/06/27 10:10:25;;;;;;;7.28;2.38;;;;;;;;;;5092732;28;20095;-73
2021/06/27 10:12:51;;;;;;;6.13;2.67;;;;;;;;;;5092395;28;20511;-72
2021/06/27 10:15:18;;;;;;;10.48;2.60;;;;;;;;;;5092922;28;20023;-72
2021/06/27 10:17:44;;;;;;;7.53;2.97;;;;;;;;;;5091621;28;20027;-74
2021/06/27 10:20:11;;;;;;;8.05;2.40;;;;;;;;;;5092304;28;20062;-74
2021/06/27 10:22:38;;;;;;;6.43;2.40;;;;;;;;;;5092588;28;20020;-73
2021/06/27 10:25:06;;;;;;;6.97;2.78;;;;;;;;;;5092610;28;20028;-74
2021/06/27 10:27:33;;;;;;;6.38;2.90;;;;;;;;;;5092047;28;20040;-73
2021/06/27 10:30:01;;;;;;;5.18;2.33;;;;;;;;;;5092571;28;20040;-74
2021/06/27 10:32:27;;;;;;;5.32;2.30;;;;;;;;;;5092542;28;20476;-73
2021/06/27 10:34:55;;;;;;;7.30;2.92;;;;;;;;;;5092156;28;20099;-73
2021/06/27 10:37:41;;;;;;;6.47;2.40;;;;;;;;;;5092654;28;20025;-74
2021/06/27 10:40:08;;;;;;;9.43;3.55;;;;;;;;;;5092532;28;20024;-72
2021/06/27 10:43:00;;;;;;;10.70;2.90;;;;;;;;;;5090777;28;20365;-72
2021/06/27 10:45:49;;;;;;;6.87;2.43;;;;;;;;;;5092690;28;20486;-72
2021/06/27 10:48:33;;;;;;;6.95;2.45;;;;;;;;;;5091934;28;20625;-72
2021/06/27 10:51:00;;;;;;;5.18;2.35;;;;;;;;;;5092659;28;20020;-71
2021/06/27 10:53:27;;;;;;;5.43;2.45;;;;;;;;;;5092449;28;20114;-72
2021/06/27 10:55:58;;;;;;;9.88;2.90;;;;;;;;;;5092054;28;20384;-72
2021/06/27 10:58:37;;;;;;;6.13;2.95;;;;;;;;;;5092735;28;20020;-73
2021/06/27 11:01:05;;;;;;;8.77;2.92;;;;;;;;;;5092370;28;20411;-72
2021/06/27 11:03:35;;;;;;;11.50;3.38;;;;;;;;;;5091839;28;20107;-72
2021/06/27 11:06:03;;;;;;;6.70;2.92;;;;;;;;;;5092385;28;20443;-72
2021/06/27 11:08:29;;;;;;;7.22;2.53;;;;;;;;;;5092295;28;20502;-72
2021/06/27 11:10:59;;;;;;;9.45;3.03;;;;;;;;;;5091810;28;20028;-72
2021/06/27 11:13:26;;;;;;;5.95;2.70;;;;;;;;;;5093807;28;20024;-72
2021/06/27 11:15:52;;;;;;;4.45;2.47;;;;;;;;;;5096161;28;20024;-72
2021/06/27 11:18:37;;;;;;;6.22;3.13;;;;;;;;;;5095810;28;20487;-72
2021/06/27 11:21:06;;;;;;;8.48;2.70;;;;;;;;;;5096021;28;20036;-72
2021/06/27 11:23:47;;;;;;;9.05;2.67;;;;;;;;;;5095454;28;20421;-72
2021/06/27 11:26:32;;;;;;;9.20;2.97;;;;;;;;;;5095907;28;20471;-72
2021/06/27 11:28:58;;;;;;;3.47;2.20;;;;;;;;;;5095764;28;20024;-72
2021/06/27 11:31:26;;;;;;;7.05;2.72;;;;;;;;;;5095494;28;20044;-73
2021/06/27 11:34:11;;;;;;;7.05;2.78;;;;;;;;;;5095677;28;20024;-72
2021/06/27 11:36:37;;;;;;;9.60;3.40;;;;;;;;;;5095767;28;20028;-72
2021/06/27 11:39:03;;;;;;;10.70;2.80;;;;;;;;;;5095440;28;20024;-72
2021/06/27 11:41:36;;;;;;;6.30;2.55;;;;;;;;;;5095616;28;20354;-72
2021/06/27 11:44:07;;;;;;;9.27;2.92;;;;;;;;;;5095536;28;20074;-72
2021/06/27 11:46:34;;;;;;;12.60;3.03;;;;;;;;;;5094971;28;20485;-73
2021/06/27 11:49:04;;;;;;;7.60;2.75;;;;;;;;;;5094178;28;20024;-72
2021/06/27 11:51:37;;;;;;;11.68;3.58;;;;;;;;;;5095175;28;20076;-72
2021/06/27 11:54:05;;;;;;;7.35;2.72;;;;;;;;;;5095417;28;20024;-72
2021/06/27 11:56:50;;;;;;;16.75;3.90;;;;;;;;;;5095352;28;20047;-73
2021/06/27 11:59:16;;;;;;;7.57;2.63;;;;;;;;;;5095042;28;20091;-73
2021/06/27 12:01:42;;;;;;;19.27;3.70;;;;;;;;;;5093931;28;20031;-73
2021/06/27 12:04:08;;;;;;;7.35;2.85;;;;;;;;;;5095124;28;20521;-73
2021/06/27 12:06:35;;;;;;;9.18;2.85;;;;;;;;;;5093294;28;20032;-72
2021/06/27 12:09:02;;;;;;;5.85;2.42;;;;;;;;;;5093756;28;20084;-74
2021/06/27 12:11:28;;;;;;;7.60;2.88;;;;;;;;;;5094961;28;20024;-72
2021/06/27 12:13:56;;;;;;;6.85;3.25;;;;;;;;;;5094641;28;20020;-72
2021/06/27 12:16:29;;;;;;;7.93;2.83;;;;;;;;;;5093710;28;20412;-72
2021/06/27 12:18:57;;;;;;;7.55;2.88;;;;;;;;;;5095129;28;20031;-72
2021/06/27 12:21:26;;;;;;;5.35;2.78;;;;;;;;;;5093132;28;20047;-71
2021/06/27 12:23:56;;;;;;;10.75;2.72;;;;;;;;;;5094654;28;20377;-72
2021/06/27 12:26:22;;;;;;;5.70;2.25;;;;;;;;;;5094573;28;20078;-72
2021/06/27 12:28:50;;;;;;;8.25;3.08;;;;;;;;;;5094365;28;20020;-74
2021/06/27 12:31:21;;;;;;;6.93;2.50;;;;;;;;;;5094641;28;20020;-74
2021/06/27 12:33:49;;;;;;;5.65;2.60;;;;;;;;;;5094531;28;20024;-74
2021/06/27 12:36:17;;;;;;;7.45;3.20;;;;;;;;;;5093325;28;20032;-74
2021/06/27 12:38:50;;;;;;;7.47;2.70;;;;;;;;;;5094674;28;20016;-74
2021/06/27 12:41:37;;;;;;;8.48;2.25;;;;;;;;;;5094096;28;20020;-72
2021/06/27 12:44:08;;;;;;;8.10;2.80;;;;;;;;;;5094400;28;20019;-72
2021/06/27 12:46:37;;;;;;;12.32;3.20;;;;;;;;;;5094281;28;20040;-74
2021/06/27 12:49:03;;;;;;;8.18;2.83;;;;;;;;;;5093887;28;20077;-72
2021/06/27 12:51:33;;;;;;;5.65;2.00;;;;;;;;;;5094212;28;20020;-73
2021/06/27 12:53:59;;;;;;;13.88;4.03;;;;;;;;;;5092949;28;20016;-73
2021/06/27 12:56:58;;;;;;;5.78;2.35;;;;;;;;;;5093751;28;20020;-73
2021/06/27 12:59:36;;;;;;;7.85;3.08;;;;;;;;;;5071004;28;20032;-73
2021/06/27 13:02:04;;;;;;;8.57;2.90;;;;;;;;;;5093757;28;20044;-72
2021/06/27 13:04:32;;;;;;;6.55;2.15;;;;;;;;;;5093937;28;20024;-73
2021/06/27 13:06:59;;;;;;;7.18;2.65;;;;;;;;;;5092667;28;20032;-73
2021/06/27 13:09:26;;;;;;;5.85;2.53;;;;;;;;;;5093583;28;20016;-73
2021/06/27 13:12:08;;;;;;;6.93;2.30;;;;;;;;;;5093914;28;20028;-73
2021/06/27 13:14:35;;;;;;;7.07;2.55;;;;;;;;;;5092463;28;20026;-71
2021/06/27 13:17:05;;;;;;;8.25;2.92;;;;;;;;;;5092029;28;20032;-72
2021/06/27 13:19:31;;;;;;;7.43;3.13;;;;;;;;;;5093853;28;20484;-74
2021/06/27 13:22:10;;;;;;;7.25;2.63;;;;;;;;;;5093618;28;20039;-73
2021/06/27 13:24:54;;;;;;;6.90;2.80;;;;;;;;;;5093249;28;20100;-72
2021/06/27 13:27:21;;;;;;;10.40;4.55;;;;;;;;;;5093358;28;20044;-72
2021/06/27 13:30:07;;;;;;;5.53;2.67;;;;;;;;;;5092215;28;20032;-72
2021/06/27 13:32:34;;;;;;;8.57;2.92;;;;;;;;;;5093501;28;20336;-73
2021/06/27 13:35:00;;;;;;;6.60;3.60;;;;;;;;;;5093341;28;20020;-72
2021/06/27 13:37:26;;;;;;;6.78;2.72;;;;;;;;;;5092880;28;20030;-72
2021/06/27 13:39:52;;;;;;;7.30;3.83;;;;;;;;;;5093617;28;20016;-73
2021/06/27 13:42:19;;;;;;;6.55;3.60;;;;;;;;;;5093302;28;20024;-72
2021/06/27 13:45:06;;;;;;;6.13;3.33;;;;;;;;;;5092791;28;20100;-73
2021/06/27 13:47:32;;;;;;;6.95;3.00;;;;;;;;;;5091961;28;20451;-72
2021/06/27 13:49:58;;;;;;;6.75;3.30;;;;;;;;;;5091828;28;20389;-73
2021/06/27 13:52:24;;;;;;;5.38;3.17;;;;;;;;;;5092900;28;20020;-72
2021/06/27 13:54:50;;;;;;;8.25;3.35;;;;;;;;;;5093130;28;20016;-73
2021/06/27 13:57:16;;;;;;;11.95;3.10;;;;;;;;;;5093310;28;20024;-73
2021/06/27 13:59:42;;;;;;;8.18;4.05;;;;;;;;;;5092745;28;20063;-73
2021/06/27 14:02:09;;;;;;;4.82;2.88;;;;;;;;;;5092941;28;20034;-73
2021/06/27 14:04:35;;;;;;;6.00;3.08;;;;;;;;;;5093009;28;20418;-74
2021/06/27 14:07:01;;;;;;;7.30;3.50;;;;;;;;;;5092314;28;20028;-72
2021/06/27 14:09:27;;;;;;;9.55;3.33;;;;;;;;;;5092868;28;20066;-72
2021/06/27 14:11:53;;;;;;;6.75;3.30;;;;;;;;;;5092718;28;20027;-72
2021/06/27 14:14:19;;;;;;;6.30;2.70;;;;;;;;;;5092422;28;20024;-72
2021/06/27 14:16:47;;;;;;;5.88;3.20;;;;;;;;;;5091480;28;20020;-71
2021/06/27 14:19:18;;;;;;;7.25;2.75;;;;;;;;;;5092396;28;20052;-72
2021/06/27 14:21:47;;;;;;;7.60;2.90;;;;;;;;;;5092745;28;20027;-72
2021/06/27 14:24:13;;;;;;;8.85;3.65;;;;;;;;;;5091403;28;20055;-72
2021/06/27 14:26:39;;;;;;;7.45;2.97;;;;;;;;;;5090762;28;20043;-72
2021/06/27 14:29:08;;;;;;;5.72;2.72;;;;;;;;;;5092630;28;20372;-73
2021/06/27 14:31:34;;;;;;;4.15;2.83;;;;;;;;;;5092561;28;20028;-72
2021/06/27 14:34:01;;;;;;;5.88;2.70;;;;;;;;;;5092124;28;20481;-72
2021/06/27 14:36:27;;;;;;;6.57;2.78;;;;;;;;;;5092792;28;20059;-72
2021/06/27 14:38:54;;;;;;;5.20;2.53;;;;;;;;;;5092688;28;20036;-73
2021/06/27 14:41:26;;;;;;;7.03;3.28;;;;;;;;;;5092243;28;20045;-73
2021/06/27 14:43:52;;;;;;;5.97;3.08;;;;;;;;;;5092567;28;20485;-73
2021/06/27 14:46:19;;;;;;;6.30;2.50;;;;;;;;;;5092446;28;20361;-72
2021/06/27 14:48:46;;;;;;;4.95;2.78;;;;;;;;;;5094411;28;20103;-73
2021/06/27 14:51:12;;;;;;;5.85;2.60;;;;;;;;;;5096595;28;20026;-72
2021/06/27 14:53:39;;;;;;;7.45;3.20;;;;;;;;;;5096439;28;20020;-74
2021/06/27 14:56:05;;;;;;;11.30;3.30;;;;;;;;;;5096288;28;20024;-74
2021/06/27 14:58:31;;;;;;;6.10;2.90;;;;;;;;;;5096969;28;20364;-74
2021/06/27 15:01:00;;;;;;;4.75;2.50;;;;;;;;;;5096473;28;20024;-75
2021/06/27 15:03:26;;;;;;;6.70;3.53;;;;;;;;;;5095952;28;20012;-72
2021/06/27 15:05:52;;;;;;;5.80;3.03;;;;;;;;;;5096252;28;20020;-74
2021/06/27 15:08:19;;;;;;;6.80;2.83;;;;;;;;;;5096539;28;20032;-72
2021/06/27 15:10:45;;;;;;;8.35;3.28;;;;;;;;;;5095771;28;20020;-74
2021/06/27 15:13:11;;;;;;;9.60;3.72;;;;;;;;;;5096164;28;20021;-72
2021/06/27 15:15:37;;;;;;;7.68;2.97;;;;;;;;;;5095840;28;20102;-72
2021/06/27 15:18:04;;;;;;;6.65;3.08;;;;;;;;;;5096268;28;20020;-72
2021/06/27 15:20:30;;;;;;;5.82;3.10;;;;;;;;;;5095949;28;20522;-73
2021/06/27 15:22:57;;;;;;;7.22;3.35;;;;;;;;;;5095602;28;20024;-74